Rotterdam Express — DMRX — position and weather

sailwx.info

Track history (hours):
 
Tides and Currents Weather Stations Pressure Air Temp Water Temp Dewpoint Dewpoint Depression Visibility Wind Speed Wind Dir Waves Ship Positions

Rotterdam Express

Last reported at 2016-Jun-30 06:00 UTC. Time now 2016-Jul-01 02:48 UTC.
Position N 08°06' W 084°18'.

Length 294 m; beam 32.2 m; draft 13.6 m.

Type: Ship. MMSI: 211335760.

Wind from 240 at 12 knots

Waves 0.5 meters (2 feet), 3 second period

Barometer 1009.7 mb
Air temperature 27.0 ° C
Visibility: greater than 10.8 NM
Dewpoint 23.9 ° C
Water temperature 29.0 ° C

Date/timePositionNaut miles runAvg speedWind from/ knotsBaromVisibWave heightAir tempDewpointWater temp
2016-Jun-30 06:00N 08°06' W 084°18'9315.5 240 / 121009.710.8 0.527.023.929.0
2016-Jun-30 00:00N 07°24' W 082°54'10016.6 210 / 71009.2 5.4 1.026.920.329.0
2016-Jun-29 18:00N 06°54' W 081°18'16210.4 140 / 71008.710.8 0.526.419.829.0
2016-Jun-29 02:24N 09°01' W 079°37'1 1.0
2016-Jun-29 01:24N 09°02' W 079°38'5 5.4
2016-Jun-29 00:30N 09°05' W 079°41'5 5.0
2016-Jun-28 23:33N 09°07' W 079°45'3 3.4
2016-Jun-28 22:33N 09°08' W 079°49'6 6.1
2016-Jun-28 21:32N 09°12' W 079°54'4 4.1
2016-Jun-28 20:33N 09°15' W 079°55'0 0.1
2016-Jun-28 19:25N 09°15' W 079°55'0 0.0
2016-Jun-28 18:25N 09°15' W 079°55'1 1.1
2016-Jun-28 17:34N 09°16' W 079°55'1 0.6
2016-Jun-28 16:33N 09°17' W 079°55'0 0.4
2016-Jun-28 15:33N 09°17' W 079°55'5 4.7
2016-Jun-28 14:33N 09°22' W 079°55'4 4.4
2016-Jun-28 13:33N 09°25' W 079°58'0 0.3
2016-Jun-28 12:31N 09°25' W 079°58'0 0.0
2016-Jun-28 11:31N 09°25' W 079°58'0 0.0
2016-Jun-28 10:25N 09°25' W 079°58'0 0.0
2016-Jun-28 09:25N 09°25' W 079°58'0 0.0
2016-Jun-28 08:31N 09°25' W 079°58'0 0.1
2016-Jun-28 07:31N 09°25' W 079°58'0 0.1
2016-Jun-28 06:28N 09°25' W 079°58'0 0.0
2016-Jun-28 04:33N 09°25' W 079°58'0 0.0
2016-Jun-28 03:33N 09°25' W 079°58'0 0.0
2016-Jun-28 02:33N 09°25' W 079°58'0 0.0
2016-Jun-28 01:31N 09°25' W 079°58'0 0.0
2016-Jun-28 00:25N 09°25' W 079°58'0 0.0
2016-Jun-27 23:30N 09°25' W 079°58'0 0.0
2016-Jun-27 22:27N 09°25' W 079°58'0 0.0
2016-Jun-27 21:32N 09°25' W 079°58'0 0.0
2016-Jun-27 20:31N 09°25' W 079°58'0 0.0
2016-Jun-27 19:30N 09°25' W 079°58'0 0.0
2016-Jun-27 18:33N 09°25' W 079°58'0 0.0
2016-Jun-27 17:33N 09°25' W 079°58'0 0.0
2016-Jun-27 16:29N 09°25' W 079°58'0 0.0
2016-Jun-27 15:32N 09°25' W 079°58'0 0.0
2016-Jun-27 14:28N 09°25' W 079°58'0 0.0
2016-Jun-27 13:33N 09°25' W 079°58'0 0.0
2016-Jun-27 12:33N 09°25' W 079°58'0 0.1
2016-Jun-27 11:33N 09°25' W 079°58'0 0.0
2016-Jun-27 10:33N 09°25' W 079°58'0 0.0
2016-Jun-27 09:33N 09°25' W 079°58'0 0.0
2016-Jun-27 08:32N 09°25' W 079°58'0 0.0
2016-Jun-27 07:34N 09°25' W 079°58'0 0.0
2016-Jun-27 06:28N 09°25' W 079°58'0 0.1
2016-Jun-27 05:31N 09°25' W 079°58'0 0.0
2016-Jun-27 04:33N 09°25' W 079°58'0 0.0
2016-Jun-27 03:33N 09°25' W 079°58'0 0.0
2016-Jun-27 02:32N 09°25' W 079°58'0 0.0
2016-Jun-27 01:34N 09°25' W 079°58'0 0.0
2016-Jun-27 00:25N 09°25' W 079°58'0 0.0
2016-Jun-26 23:29N 09°25' W 079°58'0 0.0
2016-Jun-26 22:33N 09°25' W 079°58'0 0.1
2016-Jun-26 21:33N 09°25' W 079°58'0 0.0
2016-Jun-26 20:32N 09°25' W 079°58'1 1.5
2016-Jun-26 19:33N 09°25' W 079°56'0 0.1
2016-Jun-26 18:32N 09°25' W 079°56'0 0.0
2016-Jun-26 17:33N 09°25' W 079°56'0 0.0
2016-Jun-26 16:29N 09°25' W 079°56'0 0.3
2016-Jun-26 15:33N 09°25' W 079°56'8 7.7
2016-Jun-26 14:33N 09°32' W 079°53'1414.2
2016-Jun-26 13:33N 09°44' W 079°45'1514.7
2016-Jun-26 12:33N 09°46' W 079°30'1514.8
2016-Jun-26 11:33N 09°48' W 079°15'336 8.1
2016-Jun-24 18:00N 11°42' W 073°54'4815.9 060 / 211010.7 5.4 30.620.828.0
2016-Jun-24 15:00N 12°06' W 073°12'35516.9 080 / 211012.8 5.4 2.023.517.528.0
2016-Jun-23 18:00N 14°24' W 067°36'21217.7 100 / 221016.210.8 1.029.422.629.0
2016-Jun-23 06:00N 15°42' W 064°12'12816.8 090 / 121018.710.8 0.526.922.129.0
2016-Jun-22 22:23N 16°35' W 062°11'1416.9
2016-Jun-22 21:33N 16°42' W 061°58'1717.2
2016-Jun-22 20:33N 16°51' W 061°43'1717.1
2016-Jun-22 19:33N 17°00' W 061°28'1717.1
2016-Jun-22 18:33N 17°09' W 061°13'1322.3
2016-Jun-22 18:00N 17°12' W 061°00'20216.9 090 / 211019.310.8 1.030.322.528.0
2016-Jun-22 06:00N 19°00' W 058°00'20617.1 050 / 121020.7 5.4 0.523.821.128.0
2016-Jun-21 18:00N 20°48' W 054°54'8416.8 090 / 211021.710.8 1.029.321.528.0
2016-Jun-21 13:00N 21°30' W 053°36'12618.1 090 / 211022.910.8 2.531.722.128.0
2016-Jun-21 06:00N 22°30' W 051°36'20417.0 120 / 221022.510.8 0.525.321.028.0
2016-Jun-20 18:00N 24°12' W 048°24'10417.4 090 / 211024.710.8 0.528.119.627.0
2016-Jun-20 12:00N 25°00' W 046°42'10116.9 090 / 181026.710.8 2.529.720.027.0
2016-Jun-20 06:00N 25°42' W 045°00'   080 / 171025.910.8 1.024.119.027.0
Track history (hours):
 
Tides and Currents Weather Stations Pressure Air Temp Water Temp Dewpoint Dewpoint Depression Visibility Wind Speed Wind Dir Waves Ship Positions

Rotterdam Express

Last reported at 2016-Jun-30 06:00 UTC. Time now 2016-Jul-01 02:48 UTC.
Position N 08°06' W 084°18'.

Length 294 m; beam 32.2 m; draft 13.6 m.

Type: Ship. MMSI: 211335760.

Wind from 240 at 12 knots

Waves 0.5 meters (2 feet), 3 second period

Barometer 1009.7 mb
Air temperature 27.0 ° C
Visibility: greater than 10.8 NM
Dewpoint 23.9 ° C
Water temperature 29.0 ° C

Date/timePositionNaut miles runAvg speedWind from/ knotsBaromVisibWave heightAir tempDewpointWater temp
2016-Jun-30 06:00N 08°06' W 084°18'9315.5 240 / 121009.710.8 0.527.023.929.0
2016-Jun-30 00:00N 07°24' W 082°54'10016.6 210 / 71009.2 5.4 1.026.920.329.0
2016-Jun-29 18:00N 06°54' W 081°18'16210.4 140 / 71008.710.8 0.526.419.829.0
2016-Jun-29 02:24N 09°01' W 079°37'1 1.0
2016-Jun-29 01:24N 09°02' W 079°38'5 5.4
2016-Jun-29 00:30N 09°05' W 079°41'5 5.0
2016-Jun-28 23:33N 09°07' W 079°45'3 3.4
2016-Jun-28 22:33N 09°08' W 079°49'6 6.1
2016-Jun-28 21:32N 09°12' W 079°54'4 4.1
2016-Jun-28 20:33N 09°15' W 079°55'0 0.1
2016-Jun-28 19:25N 09°15' W 079°55'0 0.0
2016-Jun-28 18:25N 09°15' W 079°55'1 1.1
2016-Jun-28 17:34N 09°16' W 079°55'1 0.6
2016-Jun-28 16:33N 09°17' W 079°55'0 0.4
2016-Jun-28 15:33N 09°17' W 079°55'5 4.7
2016-Jun-28 14:33N 09°22' W 079°55'4 4.4
2016-Jun-28 13:33N 09°25' W 079°58'0 0.3
2016-Jun-28 12:31N 09°25' W 079°58'0 0.0
2016-Jun-28 11:31N 09°25' W 079°58'0 0.0
2016-Jun-28 10:25N 09°25' W 079°58'0 0.0
2016-Jun-28 09:25N 09°25' W 079°58'0 0.0
2016-Jun-28 08:31N 09°25' W 079°58'0 0.1
2016-Jun-28 07:31N 09°25' W 079°58'0 0.1
2016-Jun-28 06:28N 09°25' W 079°58'0 0.0
2016-Jun-28 04:33N 09°25' W 079°58'0 0.0
2016-Jun-28 03:33N 09°25' W 079°58'0 0.0
2016-Jun-28 02:33N 09°25' W 079°58'0 0.0
2016-Jun-28 01:31N 09°25' W 079°58'0 0.0
2016-Jun-28 00:25N 09°25' W 079°58'0 0.0
2016-Jun-27 23:30N 09°25' W 079°58'0 0.0
2016-Jun-27 22:27N 09°25' W 079°58'0 0.0
2016-Jun-27 21:32N 09°25' W 079°58'0 0.0
2016-Jun-27 20:31N 09°25' W 079°58'0 0.0
2016-Jun-27 19:30N 09°25' W 079°58'0 0.0
2016-Jun-27 18:33N 09°25' W 079°58'0 0.0
2016-Jun-27 17:33N 09°25' W 079°58'0 0.0
2016-Jun-27 16:29N 09°25' W 079°58'0 0.0
2016-Jun-27 15:32N 09°25' W 079°58'0 0.0
2016-Jun-27 14:28N 09°25' W 079°58'0 0.0
2016-Jun-27 13:33N 09°25' W 079°58'0 0.0
2016-Jun-27 12:33N 09°25' W 079°58'0 0.1
2016-Jun-27 11:33N 09°25' W 079°58'0 0.0
2016-Jun-27 10:33N 09°25' W 079°58'0 0.0
2016-Jun-27 09:33N 09°25' W 079°58'0 0.0
2016-Jun-27 08:32N 09°25' W 079°58'0 0.0
2016-Jun-27 07:34N 09°25' W 079°58'0 0.0
2016-Jun-27 06:28N 09°25' W 079°58'0 0.1
2016-Jun-27 05:31N 09°25' W 079°58'0 0.0
2016-Jun-27 04:33N 09°25' W 079°58'0 0.0
2016-Jun-27 03:33N 09°25' W 079°58'0 0.0
2016-Jun-27 02:32N 09°25' W 079°58'0 0.0
2016-Jun-27 01:34N 09°25' W 079°58'0 0.0
2016-Jun-27 00:25N 09°25' W 079°58'0 0.0
2016-Jun-26 23:29N 09°25' W 079°58'0 0.0
2016-Jun-26 22:33N 09°25' W 079°58'0 0.1
2016-Jun-26 21:33N 09°25' W 079°58'0 0.0
2016-Jun-26 20:32N 09°25' W 079°58'1 1.5
2016-Jun-26 19:33N 09°25' W 079°56'0 0.1
2016-Jun-26 18:32N 09°25' W 079°56'0 0.0
2016-Jun-26 17:33N 09°25' W 079°56'0 0.0
2016-Jun-26 16:29N 09°25' W 079°56'0 0.3
2016-Jun-26 15:33N 09°25' W 079°56'8 7.7
2016-Jun-26 14:33N 09°32' W 079°53'1414.2
2016-Jun-26 13:33N 09°44' W 079°45'1514.7
2016-Jun-26 12:33N 09°46' W 079°30'1514.8
2016-Jun-26 11:33N 09°48' W 079°15'336 8.1
2016-Jun-24 18:00N 11°42' W 073°54'4815.9 060 / 211010.7 5.4 30.620.828.0
2016-Jun-24 15:00N 12°06' W 073°12'35516.9 080 / 211012.8 5.4 2.023.517.528.0
2016-Jun-23 18:00N 14°24' W 067°36'21217.7 100 / 221016.210.8 1.029.422.629.0
2016-Jun-23 06:00N 15°42' W 064°12'12816.8 090 / 121018.710.8 0.526.922.129.0
2016-Jun-22 22:23N 16°35' W 062°11'1416.9
2016-Jun-22 21:33N 16°42' W 061°58'1717.2
2016-Jun-22 20:33N 16°51' W 061°43'1717.1
2016-Jun-22 19:33N 17°00' W 061°28'1717.1
2016-Jun-22 18:33N 17°09' W 061°13'1322.3
2016-Jun-22 18:00N 17°12' W 061°00'20216.9 090 / 211019.310.8 1.030.322.528.0
2016-Jun-22 06:00N 19°00' W 058°00'20617.1 050 / 121020.7 5.4 0.523.821.128.0
2016-Jun-21 18:00N 20°48' W 054°54'8416.8 090 / 211021.710.8 1.029.321.528.0
2016-Jun-21 13:00N 21°30' W 053°36'12618.1 090 / 211022.910.8 2.531.722.128.0
2016-Jun-21 06:00N 22°30' W 051°36'20417.0 120 / 221022.510.8 0.525.321.028.0
2016-Jun-20 18:00N 24°12' W 048°24'10417.4 090 / 211024.710.8 0.528.119.627.0
2016-Jun-20 12:00N 25°00' W 046°42'10116.9 090 / 181026.710.8 2.529.720.027.0
2016-Jun-20 06:00N 25°42' W 045°00'   080 / 171025.910.8 1.024.119.027.0

Dump ship's entire track history